sensor_id;sensor_type;location;lat;lon;timestamp;temperature;humidity
42949;DHT22;28587;46.794;23.594;2022-10-01T00:02:27;23.70;59.30
42949;DHT22;28587;46.794;23.594;2022-10-01T00:07:28;23.70;58.80
42949;DHT22;28587;46.794;23.594;2022-10-01T00:12:29;23.70;58.40
42949;DHT22;28587;46.794;23.594;2022-10-01T00:17:30;23.70;58.50
42949;DHT22;28587;46.794;23.594;2022-10-01T00:22:31;23.70;58.50
42949;DHT22;28587;46.794;23.594;2022-10-01T00:27:32;23.70;58.50
42949;DHT22;28587;46.794;23.594;2022-10-01T00:32:35;23.70;58.50
42949;DHT22;28587;46.794;23.594;2022-10-01T00:37:36;23.70;58.60
42949;DHT22;28587;46.794;23.594;2022-10-01T00:42:37;23.70;58.50
42949;DHT22;28587;46.794;23.594;2022-10-01T00:47:45;23.70;58.50
42949;DHT22;28587;46.794;23.594;2022-10-01T00:52:55;23.70;58.50
42949;DHT22;28587;46.794;23.594;2022-10-01T00:57:57;23.70;58.50
42949;DHT22;28587;46.794;23.594;2022-10-01T01:02:58;23.70;58.60
42949;DHT22;28587;46.794;23.594;2022-10-01T01:07:59;23.70;58.40
42949;DHT22;28587;46.794;23.594;2022-10-01T01:13:16;23.70;58.50
42949;DHT22;28587;46.794;23.594;2022-10-01T01:28:56;23.70;58.40
42949;DHT22;28587;46.794;23.594;2022-10-01T01:33:59;23.70;58.50
42949;DHT22;28587;46.794;23.594;2022-10-01T01:39:04;23.70;58.60
42949;DHT22;28587;46.794;23.594;2022-10-01T01:44:09;23.60;58.50
42949;DHT22;28587;46.794;23.594;2022-10-01T01:49:12;23.60;58.30
42949;DHT22;28587;46.794;23.594;2022-10-01T01:54:16;23.70;58.50
42949;DHT22;28587;46.794;23.594;2022-10-01T01:59:18;23.60;58.50
42949;DHT22;28587;46.794;23.594;2022-10-01T02:04:30;23.60;58.30
42949;DHT22;28587;46.794;23.594;2022-10-01T02:15:17;23.60;58.40
42949;DHT22;28587;46.794;23.594;2022-10-01T02:20:45;23.60;58.30
42949;DHT22;28587;46.794;23.594;2022-10-01T02:25:50;23.60;58.40
42949;DHT22;28587;46.794;23.594;2022-10-01T02:30:53;23.60;58.40
42949;DHT22;28587;46.794;23.594;2022-10-01T02:35:57;23.60;58.30
42949;DHT22;28587;46.794;23.594;2022-10-01T02:41:02;23.60;58.40
42949;DHT22;28587;46.794;23.594;2022-10-01T02:56:57;23.60;58.30
42949;DHT22;28587;46.794;23.594;2022-10-01T03:02:17;23.60;58.30
42949;DHT22;28587;46.794;23.594;2022-10-01T03:07:19;23.60;58.30
42949;DHT22;28587;46.794;23.594;2022-10-01T03:12:19;23.60;58.20
42949;DHT22;28587;46.794;23.594;2022-10-01T03:17:22;23.60;58.30
42949;DHT22;28587;46.794;23.594;2022-10-01T03:22:23;23.60;58.20
42949;DHT22;28587;46.794;23.594;2022-10-01T03:27:24;23.60;58.20
42949;DHT22;28587;46.794;23.594;2022-10-01T03:32:25;23.60;58.20
42949;DHT22;28587;46.794;23.594;2022-10-01T03:37:25;23.60;58.10
42949;DHT22;28587;46.794;23.594;2022-10-01T03:42:26;23.60;58.10
42949;DHT22;28587;46.794;23.594;2022-10-01T03:47:27;23.60;58.10
42949;DHT22;28587;46.794;23.594;2022-10-01T03:52:28;23.60;57.80
42949;DHT22;28587;46.794;23.594;2022-10-01T03:57:29;23.50;58.00
42949;DHT22;28587;46.794;23.594;2022-10-01T04:02:31;23.60;58.00
42949;DHT22;28587;46.794;23.594;2022-10-01T04:07:31;23.60;58.00
42949;DHT22;28587;46.794;23.594;2022-10-01T04:12:32;23.50;57.90
42949;DHT22;28587;46.794;23.594;2022-10-01T04:17:35;23.50;57.90
42949;DHT22;28587;46.794;23.594;2022-10-01T04:22:39;23.50;57.80
42949;DHT22;28587;46.794;23.594;2022-10-01T04:27:42;23.60;58.00
42949;DHT22;28587;46.794;23.594;2022-10-01T04:32:54;23.50;57.80
42949;DHT22;28587;46.794;23.594;2022-10-01T04:37:57;23.50;57.90
42949;DHT22;28587;46.794;23.594;2022-10-01T04:42:59;23.50;57.90
42949;DHT22;28587;46.794;23.594;2022-10-01T04:48:00;23.50;57.90
42949;DHT22;28587;46.794;23.594;2022-10-01T04:53:01;23.60;58.00
42949;DHT22;28587;46.794;23.594;2022-10-01T04:58:01;23.50;57.80
42949;DHT22;28587;46.794;23.594;2022-10-01T05:03:02;23.50;57.90
42949;DHT22;28587;46.794;23.594;2022-10-01T05:08:04;23.60;57.90
42949;DHT22;28587;46.794;23.594;2022-10-01T05:13:05;23.50;57.80
42949;DHT22;28587;46.794;23.594;2022-10-01T05:18:06;23.50;58.30
42949;DHT22;28587;46.794;23.594;2022-10-01T05:23:07;23.50;57.70
42949;DHT22;28587;46.794;23.594;2022-10-01T05:28:08;23.60;57.90
42949;DHT22;28587;46.794;23.594;2022-10-01T05:33:09;23.50;57.80
42949;DHT22;28587;46.794;23.594;2022-10-01T05:38:10;23.60;58.00
42949;DHT22;28587;46.794;23.594;2022-10-01T05:43:11;23.60;58.00
42949;DHT22;28587;46.794;23.594;2022-10-01T05:48:12;23.60;58.00
42949;DHT22;28587;46.794;23.594;2022-10-01T05:53:13;23.60;58.10
42949;DHT22;28587;46.794;23.594;2022-10-01T05:58:15;23.60;58.30
42949;DHT22;28587;46.794;23.594;2022-10-01T06:03:16;23.70;58.20
42949;DHT22;28587;46.794;23.594;2022-10-01T06:08:17;23.70;58.30
42949;DHT22;28587;46.794;23.594;2022-10-01T06:13:19;23.70;58.00
42949;DHT22;28587;46.794;23.594;2022-10-01T06:18:19;23.70;58.20
42949;DHT22;28587;46.794;23.594;2022-10-01T06:23:20;23.70;58.20
42949;DHT22;28587;46.794;23.594;2022-10-01T06:28:21;23.70;58.10
42949;DHT22;28587;46.794;23.594;2022-10-01T06:33:22;23.80;58.30
42949;DHT22;28587;46.794;23.594;2022-10-01T06:38:23;23.80;58.30
42949;DHT22;28587;46.794;23.594;2022-10-01T06:43:26;23.70;58.50
42949;DHT22;28587;46.794;23.594;2022-10-01T06:48:28;23.70;58.80
42949;DHT22;28587;46.794;23.594;2022-10-01T06:53:31;23.70;58.80
42949;DHT22;28587;46.794;23.594;2022-10-01T06:58:32;23.70;58.60
42949;DHT22;28587;46.794;23.594;2022-10-01T07:03:33;23.80;58.80
42949;DHT22;28587;46.794;23.594;2022-10-01T07:08:34;23.70;58.90
42949;DHT22;28587;46.794;23.594;2022-10-01T07:13:35;23.70;59.00
42949;DHT22;28587;46.794;23.594;2022-10-01T07:18:36;23.70;58.70
42949;DHT22;28587;46.794;23.594;2022-10-01T07:23:37;23.80;58.20
42949;DHT22;28587;46.794;23.594;2022-10-01T07:28:38;23.80;58.60
42949;DHT22;28587;46.794;23.594;2022-10-01T07:33:40;23.80;58.60
42949;DHT22;28587;46.794;23.594;2022-10-01T07:38:41;23.80;55.90
42949;DHT22;28587;46.794;23.594;2022-10-01T07:43:45;23.80;55.80
42949;DHT22;28587;46.794;23.594;2022-10-01T07:48:47;23.80;56.10
42949;DHT22;28587;46.794;23.594;2022-10-01T07:53:48;23.90;55.80
42949;DHT22;28587;46.794;23.594;2022-10-01T07:58:54;23.90;55.50
42949;DHT22;28587;46.794;23.594;2022-10-01T08:03:55;23.80;55.80
42949;DHT22;28587;46.794;23.594;2022-10-01T08:08:56;23.80;55.40
42949;DHT22;28587;46.794;23.594;2022-10-01T08:13:57;23.80;55.80
42949;DHT22;28587;46.794;23.594;2022-10-01T08:18:59;23.80;56.50
42949;DHT22;28587;46.794;23.594;2022-10-01T08:24:01;23.80;56.90
42949;DHT22;28587;46.794;23.594;2022-10-01T08:29:02;23.80;56.90
42949;DHT22;28587;46.794;23.594;2022-10-01T08:34:03;23.80;57.20
42949;DHT22;28587;46.794;23.594;2022-10-01T08:39:04;23.80;57.70
42949;DHT22;28587;46.794;23.594;2022-10-01T08:44:06;23.80;57.90
42949;DHT22;28587;46.794;23.594;2022-10-01T08:49:19;23.80;58.10
42949;DHT22;28587;46.794;23.594;2022-10-01T08:54:37;23.80;58.40
42949;DHT22;28587;46.794;23.594;2022-10-01T08:59:42;23.80;57.60
42949;DHT22;28587;46.794;23.594;2022-10-01T09:04:44;23.80;57.30
42949;DHT22;28587;46.794;23.594;2022-10-01T09:15:31;23.80;56.80
42949;DHT22;28587;46.794;23.594;2022-10-01T09:21:00;23.80;56.90
42949;DHT22;28587;46.794;23.594;2022-10-01T09:26:01;23.80;58.20
42949;DHT22;28587;46.794;23.594;2022-10-01T09:41:45;23.70;59.30
42949;DHT22;28587;46.794;23.594;2022-10-01T09:46:46;23.70;59.70
42949;DHT22;28587;46.794;23.594;2022-10-01T09:51:53;23.70;59.60
42949;DHT22;28587;46.794;23.594;2022-10-01T10:02:35;23.70;60.00
42949;DHT22;28587;46.794;23.594;2022-10-01T10:07:37;23.60;59.70
42949;DHT22;28587;46.794;23.594;2022-10-01T10:12:41;23.70;60.20
42949;DHT22;28587;46.794;23.594;2022-10-01T10:17:45;23.60;60.50
42949;DHT22;28587;46.794;23.594;2022-10-01T10:22:50;23.60;59.00
42949;DHT22;28587;46.794;23.594;2022-10-01T10:27:55;23.60;60.50
42949;DHT22;28587;46.794;23.594;2022-10-01T10:33:03;23.70;61.20
42949;DHT22;28587;46.794;23.594;2022-10-01T10:38:04;23.70;59.90
42949;DHT22;28587;46.794;23.594;2022-10-01T10:43:11;23.60;59.10
42949;DHT22;28587;46.794;23.594;2022-10-01T10:48:17;23.70;60.70
42949;DHT22;28587;46.794;23.594;2022-10-01T10:53:26;23.80;58.50
42949;DHT22;28587;46.794;23.594;2022-10-01T10:58:33;23.80;57.50
42949;DHT22;28587;46.794;23.594;2022-10-01T11:03:42;23.90;54.50
42949;DHT22;28587;46.794;23.594;2022-10-01T11:08:46;23.90;54.50
42949;DHT22;28587;46.794;23.594;2022-10-01T11:30:25;24.10;51.80
42949;DHT22;28587;46.794;23.594;2022-10-01T11:35:57;24.20;53.00
42949;DHT22;28587;46.794;23.594;2022-10-01T11:46:15;24.20;50.30
42949;DHT22;28587;46.794;23.594;2022-10-01T11:51:26;24.30;53.80
42949;DHT22;28587;46.794;23.594;2022-10-01T11:56:35;24.20;51.60
42949;DHT22;28587;46.794;23.594;2022-10-01T12:02:01;24.20;50.20
42949;DHT22;28587;46.794;23.594;2022-10-01T12:07:28;24.20;50.30
42949;DHT22;28587;46.794;23.594;2022-10-01T12:12:33;24.20;49.60
42949;DHT22;28587;46.794;23.594;2022-10-01T12:18:03;24.20;50.10
42949;DHT22;28587;46.794;23.594;2022-10-01T12:23:14;24.30;51.40
42949;DHT22;28587;46.794;23.594;2022-10-01T12:28:39;24.30;52.50
42949;DHT22;28587;46.794;23.594;2022-10-01T12:39:01;24.30;49.50
42949;DHT22;28587;46.794;23.594;2022-10-01T12:50:01;24.30;48.10
42949;DHT22;28587;46.794;23.594;2022-10-01T12:55:24;24.30;47.00
42949;DHT22;28587;46.794;23.594;2022-10-01T13:00:36;24.30;46.50
42949;DHT22;28587;46.794;23.594;2022-10-01T13:06:01;24.30;46.00
42949;DHT22;28587;46.794;23.594;2022-10-01T13:16:47;24.30;48.10
42949;DHT22;28587;46.794;23.594;2022-10-01T13:27:30;24.50;50.80
42949;DHT22;28587;46.794;23.594;2022-10-01T13:32:36;24.50;49.50
42949;DHT22;28587;46.794;23.594;2022-10-01T13:37:51;24.60;49.60
42949;DHT22;28587;46.794;23.594;2022-10-01T13:42:56;24.60;50.10
42949;DHT22;28587;46.794;23.594;2022-10-01T13:48:15;24.60;49.50
42949;DHT22;28587;46.794;23.594;2022-10-01T13:53:19;24.60;49.50
42949;DHT22;28587;46.794;23.594;2022-10-01T14:09:05;24.70;54.70
42949;DHT22;28587;46.794;23.594;2022-10-01T14:14:18;24.60;54.70
42949;DHT22;28587;46.794;23.594;2022-10-01T14:19:44;24.60;57.40
42949;DHT22;28587;46.794;23.594;2022-10-01T14:25:28;24.60;56.90
42949;DHT22;28587;46.794;23.594;2022-10-01T14:30:38;24.60;58.10
42949;DHT22;28587;46.794;23.594;2022-10-01T14:36:02;24.60;56.50
42949;DHT22;28587;46.794;23.594;2022-10-01T14:41:05;24.60;56.50
42949;DHT22;28587;46.794;23.594;2022-10-01T14:46:17;24.60;55.30
42949;DHT22;28587;46.794;23.594;2022-10-01T14:51:32;24.50;55.30
42949;DHT22;28587;46.794;23.594;2022-10-01T14:56:33;24.50;56.40
42949;DHT22;28587;46.794;23.594;2022-10-01T15:01:34;24.50;55.90
42949;DHT22;28587;46.794;23.594;2022-10-01T15:06:41;24.50;56.00
42949;DHT22;28587;46.794;23.594;2022-10-01T15:11:42;24.50;58.50
42949;DHT22;28587;46.794;23.594;2022-10-01T15:16:44;24.50;57.10
42949;DHT22;28587;46.794;23.594;2022-10-01T15:21:53;24.50;55.50
42949;DHT22;28587;46.794;23.594;2022-10-01T15:26:56;24.50;55.50
42949;DHT22;28587;46.794;23.594;2022-10-01T15:31:57;24.50;54.60
42949;DHT22;28587;46.794;23.594;2022-10-01T15:36:59;24.40;53.70
42949;DHT22;28587;46.794;23.594;2022-10-01T15:42:05;24.40;53.50
42949;DHT22;28587;46.794;23.594;2022-10-01T15:47:33;24.40;53.20
42949;DHT22;28587;46.794;23.594;2022-10-01T15:52:45;24.40;54.00
42949;DHT22;28587;46.794;23.594;2022-10-01T15:57:55;24.40;53.70
42949;DHT22;28587;46.794;23.594;2022-10-01T16:02:57;24.40;53.60
42949;DHT22;28587;46.794;23.594;2022-10-01T16:07:58;24.40;55.20
